Time;durP1;ratioP1;P1;durP2;ratioP2;P2;SDS_P1;SDS_P2;PMS_P1;PMS_P2;Temp;Humidity;BMP_temperature;BMP_pressure;BME280_temperature;BME280_humidity;BME280_pressure;Samples;Min_cycle;Max_cycle;Signal;HPM_P1;HPM_P2
2023/04/11 01:03:27;;;;;;;3.33;2.78;;;;;;;12.37;56.96;98356.38;4947306;28;1391240;-76
2023/04/11 01:05:52;;;;;;;4.75;3.10;;;;;;;12.36;56.98;98349.47;4955440;28;20042;-76
2023/04/11 01:08:19;;;;;;;3.97;3.08;;;;;;;12.37;56.89;98334.63;4964802;28;20493;-76
2023/04/11 01:10:45;;;;;;;5.60;3.30;;;;;;;12.38;56.81;98337.09;4979195;28;20516;-77
2023/04/11 01:13:10;;;;;;;4.70;3.15;;;;;;;12.38;57.02;98336.25;4979172;28;20023;-76
2023/04/11 01:15:36;;;;;;;4.78;3.15;;;;;;;12.38;56.85;98331.03;4972804;28;20041;-76
2023/04/11 01:18:02;;;;;;;3.90;2.67;;;;;;;12.39;57.23;98332.69;4958969;28;20039;-77
2023/04/11 01:20:28;;;;;;;3.67;2.97;;;;;;;12.39;57.08;98330.06;4975318;28;20051;-77
2023/04/11 01:22:55;;;;;;;3.55;2.83;;;;;;;12.39;57.07;98332.69;4959667;28;20105;-77
2023/04/11 01:25:21;;;;;;;3.55;3.03;;;;;;;12.39;56.83;98327.44;4959870;28;20038;-77
2023/04/11 01:27:47;;;;;;;3.58;2.80;;;;;;;12.37;56.93;98324.16;4959942;28;20143;-78
2023/04/11 01:30:12;;;;;;;4.03;3.10;;;;;;;12.39;57.24;98330.88;4958952;28;20105;-76
2023/04/11 01:32:38;;;;;;;3.30;2.28;;;;;;;12.34;56.88;98324.44;4958993;28;20039;-77
2023/04/11 01:35:04;;;;;;;3.65;2.90;;;;;;;12.35;57.01;98313.81;4958972;28;20042;-75
2023/04/11 01:37:30;;;;;;;5.80;3.20;;;;;;;12.35;56.92;98311.22;4959392;28;20023;-76
2023/04/11 01:39:55;;;;;;;3.53;2.85;;;;;;;12.34;56.95;98308.72;4958759;28;20046;-77
2023/04/11 01:42:21;;;;;;;3.20;2.60;;;;;;;12.37;56.91;98311.88;4959555;28;20031;-79
2023/04/11 01:44:49;;;;;;;3.58;2.70;;;;;;;12.32;56.96;98303.63;4961263;28;20034;-77
2023/04/11 01:47:15;;;;;;;3.22;2.65;;;;;;;12.36;56.66;98299.75;4962112;28;20034;-75
2023/04/11 01:49:41;;;;;;;3.85;2.70;;;;;;;12.33;57.08;98292.19;4978373;28;20034;-74
2023/04/11 01:52:06;;;;;;;3.35;2.75;;;;;;;12.33;56.88;98286.94;4978470;28;20401;-76
2023/04/11 01:54:32;;;;;;;3.78;2.90;;;;;;;12.34;56.62;98283.38;4978231;28;20026;-76
2023/04/11 01:56:57;;;;;;;4.13;2.92;;;;;;;12.36;56.64;98296.31;4978943;28;20034;-77
2023/04/11 01:59:23;;;;;;;4.07;2.92;;;;;;;12.34;56.79;98291.22;4995970;28;20481;-77
2023/04/11 02:01:48;;;;;;;3.97;2.88;;;;;;;12.34;56.97;98293.03;5005520;28;20056;-76
2023/04/11 02:04:14;;;;;;;4.00;3.30;;;;;;;12.33;56.93;98296.59;5035477;28;20033;-76
2023/04/11 02:06:39;;;;;;;2.92;2.60;;;;;;;12.31;56.61;98288.88;5001181;28;20053;-77
2023/04/11 02:09:05;;;;;;;4.10;2.95;;;;;;;12.27;56.77;98279.66;5016850;28;20034;-76
2023/04/11 02:11:30;;;;;;;4.47;3.03;;;;;;;12.29;56.74;98281.16;5017265;28;20029;-76
2023/04/11 02:13:56;;;;;;;5.28;3.05;;;;;;;12.27;56.93;98279.66;5016870;28;20479;-75
2023/04/11 02:16:24;;;;;;;3.72;3.08;;;;;;;12.29;56.82;98285.59;5000924;28;20514;-76
2023/04/11 02:18:50;;;;;;;;;;;;;;;12.27;56.97;98277.88;5018049;28;20059;-76
2023/04/11 02:21:15;;;;;;;4.40;3.40;;;;;;;12.25;56.89;98281.59;5015276;28;19956;-76
2023/04/11 02:23:41;;;;;;;4.72;3.38;;;;;;;12.24;57.01;98280.78;5000964;28;20033;-76
2023/04/11 02:26:06;;;;;;;3.58;2.95;;;;;;;12.23;56.88;98284.34;5034417;28;20502;-75
2023/04/11 02:28:32;;;;;;;3.78;3.03;;;;;;;12.22;56.92;98285.28;5034562;28;20087;-76
2023/04/11 02:30:57;;;;;;;4.68;2.92;;;;;;;12.22;56.89;98280.06;4999872;28;20435;-76
2023/04/11 02:33:23;;;;;;;4.93;3.35;;;;;;;12.20;57.04;98270.72;4996800;28;20515;-76
2023/04/11 02:35:48;;;;;;;3.67;2.97;;;;;;;12.22;57.09;98271.38;4996980;28;20076;-76
2023/04/11 02:38:14;;;;;;;4.30;3.40;;;;;;;12.22;56.84;98271.38;5013809;28;20038;-76
2023/04/11 02:40:39;;;;;;;5.03;3.30;;;;;;;12.22;57.16;98258.31;5013497;28;20481;-76
2023/04/11 02:43:05;;;;;;;5.05;3.10;;;;;;;12.22;56.83;98263.53;5013369;28;20040;-75
2023/04/11 02:45:30;;;;;;;5.22;3.40;;;;;;;12.22;56.97;98258.31;5013314;28;20105;-76
2023/04/11 02:47:57;;;;;;;4.18;3.28;;;;;;;12.17;57.07;98256.09;5013300;28;20463;-76
2023/04/11 02:50:24;;;;;;;7.00;3.40;;;;;;;12.19;57.27;98266.44;5016371;28;20056;-76
2023/04/11 02:52:51;;;;;;;4.03;2.97;;;;;;;12.19;57.27;98261.19;5016704;28;20044;-76
2023/04/11 02:55:17;;;;;;;4.65;3.38;;;;;;;12.18;56.96;98260.38;5016581;28;20033;-76
2023/04/11 02:57:42;;;;;;;4.55;3.63;;;;;;;12.19;57.06;98254.19;5016368;28;20033;-76
2023/04/11 03:00:08;;;;;;;3.85;3.20;;;;;;;12.20;57.15;98255.00;5033615;28;20021;-76
2023/04/11 03:02:34;;;;;;;4.00;3.13;;;;;;;12.18;56.70;98244.69;5015989;28;20045;-76
2023/04/11 03:05:03;;;;;;;5.00;3.20;;;;;;;12.16;57.01;98238.78;4983694;28;20492;-75
2023/04/11 03:07:31;;;;;;;6.35;3.47;;;;;;;12.17;57.17;98234.34;5016659;28;20038;-76
2023/04/11 03:09:57;;;;;;;4.63;3.00;;;;;;;12.18;56.94;98243.88;4999079;28;20146;-76
2023/04/11 03:12:23;;;;;;;4.45;3.30;;;;;;;12.17;57.09;98237.78;5015972;28;20034;-76
2023/04/11 03:14:49;;;;;;;4.40;3.33;;;;;;;12.18;56.87;98233.41;4999760;28;20030;-76
2023/04/11 03:17:14;;;;;;;5.45;3.40;;;;;;;12.16;56.96;98237.94;4999602;28;20033;-76
2023/04/11 03:19:40;;;;;;;5.43;3.33;;;;;;;12.18;56.85;98246.50;4999073;28;20084;-76
2023/04/11 03:22:05;;;;;;;4.72;3.40;;;;;;;12.18;57.16;98249.09;5016165;28;20100;-76
2023/04/11 03:24:31;;;;;;;3.63;3.03;;;;;;;12.13;56.69;98239.88;4999604;28;20396;-75
2023/04/11 03:26:57;;;;;;;4.88;3.65;;;;;;;12.16;57.17;98248.41;5014533;28;20037;-76
2023/04/11 03:29:23;;;;;;;4.70;3.55;;;;;;;12.15;56.84;98250.19;4999259;28;20025;-75
2023/04/11 03:31:48;;;;;;;4.45;3.47;;;;;;;12.15;56.88;98252.81;5033200;28;20499;-76
2023/04/11 03:34:14;;;;;;;5.55;4.15;;;;;;;12.15;57.17;98252.00;4983083;28;20095;-78
2023/04/11 03:36:40;;;;;;;4.57;3.70;;;;;;;12.11;56.93;98244.41;4998478;28;20132;-77
2023/04/11 03:39:05;;;;;;;4.45;3.38;;;;;;;12.15;56.95;98252.81;5015660;28;20030;-77
2023/04/11 03:41:31;;;;;;;4.95;3.75;;;;;;;12.13;56.86;98239.88;5015523;28;20032;-78
2023/04/11 03:43:56;;;;;;;6.47;3.80;;;;;;;12.18;58.39;98246.50;4999073;28;20025;-76
2023/04/11 03:46:22;;;;;;;5.15;3.78;;;;;;;12.19;58.26;98232.41;5015777;28;20041;-74
2023/04/11 03:48:47;;;;;;;5.32;4.25;;;;;;;12.20;58.26;98247.16;5015356;28;20037;-74
2023/04/11 03:51:13;;;;;;;4.97;3.60;;;;;;;12.21;60.93;98235.75;5015229;28;20486;-73
2023/04/11 03:53:38;;;;;;;4.97;3.80;;;;;;;12.24;59.46;98241.50;5000229;28;20084;-77
2023/04/11 03:56:04;;;;;;;5.00;3.88;;;;;;;12.28;59.01;98239.44;4982581;28;20076;-83
2023/04/11 03:58:30;;;;;;;5.78;4.00;;;;;;;12.27;59.16;98235.16;4999027;28;20071;-85
2023/04/11 04:00:55;;;;;;;5.97;3.88;;;;;;;12.27;59.00;98237.78;5015150;28;20029;-86
2023/04/11 04:03:21;;;;;;;7.57;3.70;;;;;;;12.26;58.80;98242.19;5019420;28;20053;-86
2023/04/11 04:05:46;;;;;;;4.55;3.53;;;;;;;12.27;58.79;98229.91;4999375;28;20044;-77
2023/04/11 04:08:12;;;;;;;6.53;4.13;;;;;;;12.25;58.61;98229.25;5015059;28;20476;-77
2023/04/11 04:10:37;;;;;;;4.72;3.85;;;;;;;12.28;58.32;98228.97;4982528;28;20120;-77
2023/04/11 04:13:03;;;;;;;6.80;4.38;;;;;;;12.26;58.43;98223.06;4982368;28;20045;-77
2023/04/11 04:15:28;;;;;;;6.13;4.47;;;;;;;12.30;58.16;98232.25;4998735;28;20029;-76
2023/04/11 04:17:54;;;;;;;5.50;4.22;;;;;;;12.28;58.14;98219.31;5014493;28;20095;-76
2023/04/11 04:20:19;;;;;;;7.40;4.20;;;;;;;12.29;57.84;98222.78;5014714;28;20025;-76
2023/04/11 04:22:46;;;;;;;6.22;4.43;;;;;;;12.30;57.86;98220.03;5032305;28;20029;-77
2023/04/11 04:25:14;;;;;;;5.00;4.03;;;;;;;12.27;57.82;98206.38;4999134;28;20461;-77
2023/04/11 04:27:43;;;;;;;5.20;3.88;;;;;;;12.30;57.76;98209.56;4982673;28;20099;-77
2023/04/11 04:30:14;;;;;;;6.20;3.90;;;;;;;12.30;57.70;98211.31;5015213;28;20060;-77
2023/04/11 04:32:39;;;;;;;5.00;4.07;;;;;;;12.30;57.57;98212.16;5015114;28;20032;-77
2023/04/11 04:35:05;;;;;;;5.07;4.00;;;;;;;12.35;57.39;98213.53;4998077;28;20045;-77
2023/04/11 04:37:31;;;;;;;5.05;4.15;;;;;;;12.31;57.29;98192.88;5014199;28;20042;-77
2023/04/11 04:40:01;;;;;;;4.82;3.25;;;;;;;12.34;57.66;98201.41;4998146;28;20052;-77
2023/04/11 04:42:27;;;;;;;4.22;3.53;;;;;;;12.38;57.41;98206.22;4982407;28;20069;-77
2023/04/11 04:44:54;;;;;;;4.32;3.50;;;;;;;12.38;57.37;98205.38;5014185;28;20029;-77
2023/04/11 04:47:23;;;;;;;5.22;3.80;;;;;;;12.40;57.42;98198.25;4998416;28;20395;-77
2023/04/11 04:49:52;;;;;;;4.30;3.63;;;;;;;12.38;57.04;98190.53;4998111;28;20025;-77
2023/04/11 04:52:18;;;;;;;4.38;3.58;;;;;;;12.43;57.12;98204.00;4999157;28;20041;-77
2023/04/11 04:54:43;;;;;;;4.13;3.10;;;;;;;12.43;57.15;98198.78;5014376;28;20045;-77
2023/04/11 04:57:09;;;;;;;4.05;3.35;;;;;;;12.43;57.02;98182.22;4998108;28;20025;-77
2023/04/11 04:59:35;;;;;;;5.20;3.58;;;;;;;12.48;56.95;98190.50;5014519;28;20033;-77
2023/04/11 05:02:00;;;;;;;5.90;3.72;;;;;;;12.50;56.54;98183.31;5014737;28;20057;-78
2023/04/11 05:04:26;;;;;;;4.13;3.42;;;;;;;12.52;56.70;98181.38;4982125;28;20036;-79
2023/04/11 05:06:51;;;;;;;4.65;3.63;;;;;;;12.57;56.80;98179.16;5014532;28;20033;-78
2023/04/11 05:09:17;;;;;;;3.85;3.20;;;;;;;12.60;56.74;98184.13;4982372;28;20038;-78
2023/04/11 05:11:42;;;;;;;5.60;3.42;;;;;;;12.63;56.51;98177.75;4998554;28;20447;-77
2023/04/11 05:14:08;;;;;;;4.80;3.78;;;;;;;12.65;56.74;98171.41;4998328;28;20491;-78
2023/04/11 05:16:39;;;;;;;4.80;3.40;;;;;;;12.68;56.22;98175.53;5015185;28;20112;-80
2023/04/11 05:19:04;;;;;;;5.22;3.53;;;;;;;12.71;56.56;98175.25;4999916;28;20101;-79
2023/04/11 05:21:30;;;;;;;4.47;3.22;;;;;;;12.73;56.49;98175.94;5014602;28;20412;-76
2023/04/11 05:23:55;;;;;;;5.18;3.50;;;;;;;12.76;56.13;98166.94;4982488;28;20056;-78
2023/04/11 05:26:21;;;;;;;5.25;3.88;;;;;;;12.80;56.02;98168.31;4998596;28;20072;-79
2023/04/11 05:28:46;;;;;;;4.35;3.30;;;;;;;12.81;56.09;98159.50;4981697;28;20463;-77
2023/04/11 05:31:12;;;;;;;4.40;3.40;;;;;;;12.84;55.88;98156.59;4998564;28;20542;-78
2023/04/11 05:33:38;;;;;;;5.93;3.97;;;;;;;12.91;55.97;98157.66;4982086;28;20060;-79
2023/04/11 05:36:05;;;;;;;5.20;3.42;;;;;;;12.96;55.69;98154.59;4998353;28;20040;-77
2023/04/11 05:38:32;;;;;;;4.55;3.10;;;;;;;12.96;55.85;98141.50;4992646;28;20496;-74
2023/04/11 05:40:59;;;;;;;5.75;3.25;;;;;;;13.11;59.28;98147.03;5021187;28;20065;-72
2023/04/11 05:43:24;;;;;;;13.23;4.10;;;;;;;13.30;59.92;98136.44;4988601;28;20538;-75
2023/04/11 05:45:51;;;;;;;6.22;4.00;;;;;;;13.36;59.18;98137.66;4982079;28;20050;-76
2023/04/11 05:48:18;;;;;;;5.05;3.38;;;;;;;13.33;58.54;98135.34;4998677;28;20028;-80
2023/04/11 05:50:44;;;;;;;6.85;4.40;;;;;;;13.32;58.31;98138.91;4979577;28;20030;-77
2023/04/11 05:53:10;;;;;;;5.82;3.90;;;;;;;13.29;58.61;98147.09;4994909;28;20178;-78
2023/04/11 05:55:36;;;;;;;5.63;3.83;;;;;;;13.27;58.22;98141.16;4996278;28;20037;-77
2023/04/11 05:58:01;;;;;;;5.95;4.00;;;;;;;13.24;58.14;98144.09;4998401;28;20113;-77
2023/04/11 06:00:29;;;;;;;10.00;4.28;;;;;;;13.20;58.01;98138.31;4999252;28;20058;-78
2023/04/11 06:02:55;;;;;;;6.38;4.05;;;;;;;13.21;58.10;98146.00;4998159;28;20520;-78
2023/04/11 06:05:20;;;;;;;7.43;4.57;;;;;;;13.20;57.86;98135.69;4998552;28;20038;-79
2023/04/11 06:07:46;;;;;;;5.75;4.30;;;;;;;13.17;57.64;98128.94;4998741;28;20393;-75
2023/04/11 06:10:12;;;;;;;5.47;3.90;;;;;;;13.22;57.23;98133.75;4997759;28;20477;-77
2023/04/11 06:12:37;;;;;;;13.18;3.75;;;;;;;13.30;60.46;98120.72;4997878;28;20033;-76
2023/04/11 06:15:03;;;;;;;6.53;3.60;;;;;;;13.42;60.32;98129.19;4998538;28;20041;-76
2023/04/11 06:17:29;;;;;;;5.07;3.83;;;;;;;13.49;59.49;98118.94;4998717;28;20066;-78
2023/04/11 06:19:54;;;;;;;5.13;3.60;;;;;;;13.53;58.66;98113.25;4997535;28;20029;-78
2023/04/11 06:22:20;;;;;;;8.20;3.63;;;;;;;13.55;58.34;98107.84;4997368;28;20051;-78
2023/04/11 06:24:47;;;;;;;5.55;3.75;;;;;;;13.60;57.99;98103.00;4997258;28;20405;-79
2023/04/11 06:27:13;;;;;;;7.72;3.08;;;;;;;13.66;57.81;98107.63;4998392;28;20037;-78
2023/04/11 06:29:42;;;;;;;6.35;3.00;;;;;;;13.75;57.28;98111.13;4997707;28;20046;-78
2023/04/11 06:32:09;;;;;;;4.88;3.30;;;;;;;13.82;56.95;98116.56;4998177;28;20034;-78
2023/04/11 06:34:35;;;;;;;4.43;3.25;;;;;;;13.86;56.56;98121.38;4998214;28;20026;-81
2023/04/11 06:37:00;;;;;;;6.22;2.92;;;;;;;13.94;56.08;98117.97;4997356;28;20038;-83
2023/04/11 06:39:33;;;;;;;3.92;3.03;;;;;;;13.99;55.88;98117.53;4999818;28;20034;-83
2023/04/11 06:42:02;;;;;;;4.22;2.97;;;;;;;14.03;55.53;98119.69;5016062;28;20503;-86
2023/04/11 06:44:29;;;;;;;5.45;2.97;;;;;;;14.06;55.31;98114.13;4998650;28;20034;-82
2023/04/11 06:46:55;;;;;;;4.80;3.13;;;;;;;14.14;55.21;98125.63;4998638;28;20057;-80
2023/04/11 06:49:21;;;;;;;6.28;2.60;;;;;;;14.29;58.71;98124.94;4983041;28;20412;-77
2023/04/11 06:51:48;;;;;;;3.65;2.42;;;;;;;14.40;58.92;98123.81;4997478;28;20030;-75
2023/04/11 06:54:14;;;;;;;6.65;2.83;;;;;;;14.49;58.99;98114.19;5008494;28;20049;-77
2023/04/11 06:56:40;;;;;;;6.70;2.65;;;;;;;14.59;58.60;98114.88;5000251;28;20060;-80
2023/04/11 06:59:05;;;;;;;4.95;2.72;;;;;;;14.71;58.55;98122.53;5017561;28;20040;-77
2023/04/11 07:01:36;;;;;;;6.07;2.88;;;;;;;14.83;58.79;98111.56;5001118;28;20072;-78
2023/04/11 07:04:03;;;;;;;9.85;2.90;;;;;;;15.14;60.60;98118.06;5016185;28;20099;-73
2023/04/11 07:06:29;;;;;;;6.03;2.50;;;;;;;15.60;58.86;98104.47;4999433;28;20033;-70
2023/04/11 07:08:55;;;;;;;3.13;2.38;;;;;;;15.95;57.52;98103.31;4983934;28;20026;-73
2023/04/11 07:11:24;;;;;;;4.43;2.50;;;;;;;16.40;56.36;98108.97;5000072;28;20419;-75
2023/04/11 07:13:49;;;;;;;3.90;2.55;;;;;;;16.84;54.42;98108.47;5000403;28;20041;-72
2023/04/11 07:16:15;;;;;;;3.85;2.42;;;;;;;17.09;52.25;98119.72;5033884;28;20409;-73
2023/04/11 07:18:40;;;;;;;5.53;2.83;;;;;;;17.39;51.04;98111.94;4999578;28;20168;-73
2023/04/11 07:21:12;;;;;;;6.18;2.85;;;;;;;17.63;49.70;98108.31;4999479;28;20068;-72
2023/04/11 07:23:38;;;;;;;3.97;2.72;;;;;;;17.82;49.34;98103.50;5000038;28;20037;-74
2023/04/11 07:26:03;;;;;;;4.47;2.67;;;;;;;17.91;48.81;98107.75;5033992;28;20040;-76
2023/04/11 07:28:30;;;;;;;6.13;2.92;;;;;;;18.06;47.92;98110.44;5035240;28;20025;-74
2023/04/11 07:30:56;;;;;;;4.28;2.80;;;;;;;18.10;47.91;98103.78;5016069;28;20032;-76
2023/04/11 07:33:22;;;;;;;4.38;3.03;;;;;;;18.23;47.53;98109.28;5015589;28;20049;-85
2023/04/11 07:35:49;;;;;;;4.97;3.35;;;;;;;18.39;48.37;98104.78;5001716;28;20033;-88
2023/04/11 07:38:25;;;;;;;4.65;3.38;;;;;;;18.58;48.85;98098.13;5001370;28;20116;-81
2023/04/11 07:40:51;;;;;;;6.50;3.75;;;;;;;18.76;48.08;98105.69;5034854;28;20480;-83
2023/04/11 07:43:17;;;;;;;7.53;3.42;;;;;;;19.05;46.98;98096.06;5003272;28;20040;-82
2023/04/11 07:45:43;;;;;;;5.72;3.58;;;;;;;19.28;46.02;98098.56;5001011;28;20049;-85
2023/04/11 07:48:08;;;;;;;5.38;4.07;;;;;;;19.41;45.57;98101.31;5017919;28;20037;-84
2023/04/11 07:50:34;;;;;;;5.10;3.65;;;;;;;19.47;45.05;98097.91;4984206;28;20416;-81
2023/04/11 07:53:00;;;;;;;5.80;4.30;;;;;;;19.66;44.66;98100.94;5000383;28;20110;-80
2023/04/11 07:55:27;;;;;;;8.13;4.00;;;;;;;19.63;44.33;98096.81;4999253;28;20049;-81
2023/04/11 07:57:53;;;;;;;8.32;4.55;;;;;;;19.64;44.56;98101.13;5000709;28;20373;-83
2023/04/11 08:00:20;;;;;;;6.10;4.50;;;;;;;19.59;46.55;98094.75;4983105;28;20656;-83
2023/04/11 08:02:46;;;;;;;8.20;4.60;;;;;;;19.68;47.51;98105.00;4999332;28;20420;-81
2023/04/11 08:05:12;;;;;;;7.82;4.28;;;;;;;19.71;47.88;98096.69;5015915;28;20037;-80
2023/04/11 08:07:37;;;;;;;6.95;4.43;;;;;;;19.60;48.33;98105.16;4999485;28;20037;-77
2023/04/11 08:10:04;;;;;;;7.60;4.38;;;;;;;19.46;49.01;98101.56;4999597;28;20029;-76
2023/04/11 08:12:30;;;;;;;10.88;4.38;;;;;;;19.40;48.93;98097.00;5015537;28;20025;-77
2023/04/11 08:14:55;;;;;;;7.10;4.53;;;;;;;19.38;48.27;98091.09;4999056;28;20040;-75
2023/04/11 08:17:24;;;;;;;7.10;3.97;;;;;;;19.25;47.06;98089.16;4998254;28;20045;-78
2023/04/11 08:19:50;;;;;;;5.40;4.25;;;;;;;19.19;46.72;98086.44;4999670;28;20029;-76
2023/04/11 08:22:16;;;;;;;6.95;4.60;;;;;;;19.24;46.05;98076.91;4998978;28;20183;-80
2023/04/11 08:24:42;;;;;;;8.18;4.43;;;;;;;19.25;46.91;98075.91;5000081;28;20082;-79
2023/04/11 08:27:07;;;;;;;5.28;4.00;;;;;;;19.25;48.32;98073.28;4980616;28;20475;-79
2023/04/11 08:29:34;;;;;;;6.47;4.45;;;;;;;19.23;47.29;98072.66;4999243;28;20507;-79
2023/04/11 08:32:01;;;;;;;7.65;4.15;;;;;;;19.14;46.52;98058.72;4999133;28;20082;-78
2023/04/11 08:34:27;;;;;;;7.03;4.03;;;;;;;19.21;45.60;98061.41;5016068;28;20060;-78
2023/04/11 08:36:52;;;;;;;5.22;4.40;;;;;;;19.15;45.44;98057.72;4998779;28;20472;-77
2023/04/11 08:39:18;;;;;;;6.50;4.28;;;;;;;19.18;44.84;98053.84;4982561;28;20056;-75
2023/04/11 08:41:46;;;;;;;4.95;3.83;;;;;;;19.15;44.21;98043.69;4983759;28;20037;-79
2023/04/11 08:44:12;;;;;;;4.72;4.03;;;;;;;19.11;43.69;98037.94;4999365;28;20033;-78
2023/04/11 08:46:40;;;;;;;5.43;4.38;;;;;;;19.11;43.57;98047.69;4999349;28;20041;-73
2023/04/11 08:49:05;;;;;;;4.28;3.80;;;;;;;19.09;43.30;98033.84;4982200;28;20130;-76
2023/04/11 08:51:34;;;;;;;5.38;3.83;;;;;;;19.09;42.93;98028.56;4998329;28;20096;-80
2023/04/11 08:54:03;;;;;;;5.47;4.20;;;;;;;19.03;42.90;98029.31;4981549;28;20036;-78
2023/04/11 08:56:28;;;;;;;5.18;4.00;;;;;;;19.02;42.30;98025.84;4997115;28;20049;-78
2023/04/11 08:58:54;;;;;;;4.55;3.88;;;;;;;18.99;42.17;98012.97;4980926;28;20401;-78
2023/04/11 09:01:32;;;;;;;5.28;4.13;;;;;;;19.05;41.82;98027.28;4981122;28;20045;-78
2023/04/11 09:04:07;;;;;;;6.05;4.35;;;;;;;18.96;41.84;98016.00;4998240;28;20523;-80
2023/04/11 09:06:33;;;;;;;5.30;4.35;;;;;;;18.86;41.69;98015.50;4998327;28;20029;-78
2023/04/11 09:09:05;;;;;;;7.20;4.53;;;;;;;18.80;41.69;98009.94;4982179;28;20030;-78
2023/04/11 09:11:52;;;;;;;5.05;4.38;;;;;;;18.75;41.50;98008.84;4983899;28;20032;-80
2023/04/11 09:14:18;;;;;;;6.43;5.32;;;;;;;18.71;41.53;98004.97;5000826;28;20135;-78
2023/04/11 09:16:57;;;;;;;7.60;5.40;;;;;;;18.69;41.38;98004.31;4998666;28;20502;-80
2023/04/11 09:19:27;;;;;;;7.80;5.38;;;;;;;18.66;40.85;97999.41;5015173;28;20103;-78
2023/04/11 09:21:59;;;;;;;7.57;5.72;;;;;;;18.52;41.30;97991.34;4982310;28;20025;-79
2023/04/11 09:24:26;;;;;;;6.47;5.55;;;;;;;18.43;41.41;97997.72;4999636;28;20122;-77
2023/04/11 09:27:15;;;;;;;6.90;5.88;;;;;;;18.31;41.47;98001.84;4997836;28;20492;-78
2023/04/11 09:29:47;;;;;;;7.38;6.13;;;;;;;18.29;41.45;98001.22;5001307;28;20032;-78
2023/04/11 09:32:33;;;;;;;8.23;7.00;;;;;;;18.19;41.58;97996.22;5002577;28;20079;-78
2023/04/11 09:35:23;;;;;;;12.90;7.50;;;;;;;18.15;41.81;97997.59;5036554;28;20040;-78
2023/04/11 09:38:02;;;;;;;9.13;7.78;;;;;;;18.19;41.75;97994.41;5018938;28;20026;-79
2023/04/11 09:40:31;;;;;;;10.02;7.68;;;;;;;18.20;41.76;97988.13;5018819;28;20499;-79
2023/04/11 09:42:59;;;;;;;9.45;7.25;;;;;;;18.24;41.20;97985.91;4985862;28;20192;-80
2023/04/11 09:45:27;;;;;;;;;;;;;;;18.25;41.32;97985.75;4985823;28;20045;-79
2023/04/11 09:47:55;;;;;;;8.23;6.75;;;;;;;18.27;41.59;97973.16;5035888;28;19909;-78
2023/04/11 09:50:23;;;;;;;10.07;6.95;;;;;;;18.24;41.39;97980.63;5001926;28;20049;-79
2023/04/11 09:52:51;;;;;;;9.55;6.70;;;;;;;18.26;40.99;97978.63;5018042;28;20033;-76
2023/04/11 09:55:19;;;;;;;8.57;6.90;;;;;;;18.27;41.06;97978.44;4985860;28;20112;-78
2023/04/11 09:57:49;;;;;;;7.78;6.55;;;;;;;18.28;40.77;97974.00;5000877;28;20042;-78
2023/04/11 10:00:18;;;;;;;8.75;6.78;;;;;;;18.27;40.45;97970.50;5017710;28;20548;-76
2023/04/11 10:02:45;;;;;;;9.93;7.00;;;;;;;18.20;40.46;97969.63;4985613;28;20103;-79
2023/04/11 10:05:12;;;;;;;8.05;6.60;;;;;;;18.18;40.46;97962.88;4984955;28;20500;-77
2023/04/11 10:08:02;;;;;;;7.82;6.13;;;;;;;18.16;40.41;97964.91;4985102;28;20507;-78
2023/04/11 10:10:28;;;;;;;7.68;6.57;;;;;;;18.12;40.42;97955.69;5004336;28;20106;-77
2023/04/11 10:12:53;;;;;;;6.90;5.93;;;;;;;18.08;40.61;97957.88;5017042;28;20076;-78
2023/04/11 10:15:21;;;;;;;7.22;6.30;;;;;;;17.98;40.32;97950.25;4984188;28;20060;-77
2023/04/11 10:18:13;;;;;;;9.17;6.00;;;;;;;17.90;40.63;97950.38;4985334;28;20037;-78
2023/04/11 10:20:49;;;;;;;8.18;6.45;;;;;;;17.82;40.59;97948.59;5018020;28;20324;-76
2023/04/11 10:23:15;;;;;;;9.35;6.32;;;;;;;17.73;40.27;97941.78;4985478;28;20030;-76
2023/04/11 10:25:57;;;;;;;8.95;6.18;;;;;;;17.66;40.69;97938.22;5001656;28;20029;-78
2023/04/11 10:28:37;;;;;;;6.43;5.70;;;;;;;17.55;40.69;97934.19;5018196;28;20021;-76
2023/04/11 10:31:03;;;;;;;8.15;5.47;;;;;;;17.47;41.01;97926.38;5017329;28;20025;-76
2023/04/11 10:33:29;;;;;;;7.18;6.00;;;;;;;17.38;40.95;97930.94;5034818;28;20033;-79
2023/04/11 10:36:09;;;;;;;8.50;5.57;;;;;;;17.30;41.02;97923.06;4984695;28;20033;-78
2023/04/11 10:38:43;;;;;;;6.55;5.75;;;;;;;17.22;41.12;97920.53;5001213;28;20417;-76
2023/04/11 10:41:28;;;;;;;7.20;5.63;;;;;;;17.09;41.20;97926.41;5015931;28;20039;-79
2023/04/11 10:44:17;;;;;;;6.85;6.15;;;;;;;17.01;41.24;97924.66;4985324;28;20037;-75
2023/04/11 10:46:50;;;;;;;7.20;6.10;;;;;;;16.98;41.19;97922.38;5000698;28;20112;-75
2023/04/11 10:49:35;;;;;;;7.72;5.60;;;;;;;16.90;41.23;97904.00;5000452;28;20059;-76
2023/04/11 10:52:40;;;;;;;6.82;5.30;;;;;;;16.80;41.14;97918.22;5017526;28;20029;-77
2023/04/11 10:55:16;;;;;;;8.23;5.65;;;;;;;16.72;41.24;97906.94;5006514;28;20504;-77
2023/04/11 10:58:06;;;;;;;6.45;5.35;;;;;;;16.69;41.11;97909.91;4983871;28;20045;-77
2023/04/11 11:00:50;;;;;;;7.90;6.03;;;;;;;16.66;41.41;97913.72;5016672;28;20033;-76
2023/04/11 11:03:17;;;;;;;7.53;5.30;;;;;;;16.62;41.18;97905.34;5015788;28;20053;-76
2023/04/11 11:05:43;;;;;;;8.45;5.78;;;;;;;16.53;41.32;97898.50;4983729;28;20095;-76
2023/04/11 11:08:08;;;;;;;5.93;4.97;;;;;;;16.58;41.25;97897.97;4999987;28;20050;-76
2023/04/11 11:10:48;;;;;;;5.90;5.03;;;;;;;16.54;41.23;97894.88;4983785;28;20025;-76
2023/04/11 11:13:14;;;;;;;7.43;5.60;;;;;;;16.48;41.30;97900.84;5019002;28;20029;-76
2023/04/11 11:15:46;;;;;;;7.32;5.60;;;;;;;16.46;41.08;97902.81;4983517;28;20571;-76
2023/04/11 11:18:13;;;;;;;6.15;5.32;;;;;;;16.44;40.97;97899.53;5000160;28;20120;-78
2023/04/11 11:20:40;;;;;;;6.70;5.07;;;;;;;16.38;41.23;97892.34;4999315;28;20047;-78
2023/04/11 11:23:10;;;;;;;6.40;5.13;;;;;;;16.37;41.41;97894.16;4999039;28;20056;-78
2023/04/11 11:25:35;;;;;;;6.10;4.95;;;;;;;16.33;41.28;97887.59;5000611;28;20057;-76
2023/04/11 11:28:07;;;;;;;7.20;5.55;;;;;;;16.29;41.42;97891.56;5000073;28;20087;-75
2023/04/11 11:30:34;;;;;;;6.85;5.32;;;;;;;16.26;41.16;97887.47;4999942;28;20112;-76
2023/04/11 11:33:16;;;;;;;6.68;5.22;;;;;;;16.21;41.08;97889.81;4983385;28;20045;-77
2023/04/11 11:35:59;;;;;;;7.07;4.65;;;;;;;16.16;40.99;97878.16;5016417;28;20034;-78
2023/04/11 11:38:26;;;;;;;7.15;5.10;;;;;;;16.12;40.93;97871.59;4983739;28;20033;-76
2023/04/11 11:40:51;;;;;;;6.20;5.03;;;;;;;16.11;40.95;97876.03;4983119;28;20037;-79
2023/04/11 11:43:17;;;;;;;5.32;4.53;;;;;;;16.07;41.06;97877.38;4983355;28;20039;-75
2023/04/11 11:45:42;;;;;;;6.32;5.00;;;;;;;16.00;40.92;97864.09;4983225;28;20539;-76
2023/04/11 11:48:21;;;;;;;6.05;4.60;;;;;;;15.95;40.94;97858.53;4982939;28;20052;-75
2023/04/11 11:50:53;;;;;;;4.97;4.32;;;;;;;15.91;40.96;97873.84;4983714;28;20032;-76
2023/04/11 11:53:20;;;;;;;5.85;4.88;;;;;;;15.88;41.09;97863.66;5000102;28;20467;-76
2023/04/11 11:55:50;;;;;;;6.90;4.80;;;;;;;15.84;41.07;97857.09;5000028;28;20448;-77
2023/04/11 11:58:19;;;;;;;6.50;5.15;;;;;;;15.82;41.13;97850.38;4998133;28;20272;-76
2023/04/11 12:00:50;;;;;;;6.20;5.18;;;;;;;15.79;40.91;97862.06;4991579;28;20101;-78
2023/04/11 12:03:21;;;;;;;7.70;5.80;;;;;;;15.72;40.90;97859.25;4952989;28;20055;-78
2023/04/11 12:05:54;;;;;;;7.28;5.50;;;;;;;15.72;41.00;97861.09;4972397;28;20035;-77
2023/04/11 12:08:23;;;;;;;13.05;5.65;;;;;;;15.69;40.64;97849.09;4956642;28;20051;-76
2023/04/11 12:10:50;;;;;;;6.45;4.68;;;;;;;15.64;40.88;97846.16;4956269;28;20031;-75
2023/04/11 12:13:21;;;;;;;7.00;5.50;;;;;;;15.61;40.96;97835.13;4956381;28;20065;-75
2023/04/11 12:16:05;;;;;;;7.78;5.47;;;;;;;15.62;40.96;97845.47;4956235;28;20039;-76
2023/04/11 12:18:30;;;;;;;6.57;5.18;;;;;;;15.60;40.90;97844.84;4956032;28;20092;-77
2023/04/11 12:20:57;;;;;;;6.45;4.55;;;;;;;15.56;40.81;97833.84;4956049;28;20111;-76
2023/04/11 12:23:46;;;;;;;;;;;;;;;;;;;;;
2023/04/11 12:26:32;;;;;;;5.90;4.95;;;;;;;15.53;40.89;97817.59;5007335;28;20041;-78
2023/04/11 12:29:10;;;;;;;5.93;4.90;;;;;;;15.40;40.81;97815.50;4965098;28;20112;-76
2023/04/11 12:31:36;;;;;;;4.97;4.32;;;;;;;15.45;40.95;97830.75;4980178;28;20033;-77
2023/04/11 12:34:02;;;;;;;7.32;4.68;;;;;;;15.38;41.04;97810.41;4963399;28;20127;-77
2023/04/11 12:36:28;;;;;;;7.00;5.20;;;;;;;15.40;41.00;97815.50;4979802;28;20045;-77
2023/04/11 12:38:54;;;;;;;9.63;5.20;;;;;;;15.36;41.03;97812.38;4979846;28;20042;-77
2023/04/11 12:41:20;;;;;;;6.43;5.22;;;;;;;15.36;41.10;97816.84;4995390;28;20523;-77